CheckWX is a tool to help pilots better visualize weather data.  It is not intended as a substitute for an official pre-flight weather briefing.

20:37:41 UTC

EGYP METAR
Mount Pleasant Airport
Mount Pleasant, Falkland Islands
Current

48 mins ago

EGYP 161950Z 33010KT 9999 SCT023 05/03 Q1000 WHT TEMPO FEW023 BLU
Observed
Jul-16 @ 19:50 UTC
Wind
  • 330° at 10 KTS
Visibility
10,000+ meters
Flight Rules
VFR
Cloud Levels
  • Scattered at 2,300' AGL
Temperature
C / 41°F
Dewpoint
C / 37°F
Humidity
87%
Altimeter
29.53" Hg
Pressure
999.92 hPa
Previous

2 hours ago

EGYP 161850Z 32013KT 9999 FEW025 06/03 Q0999 BLU NOSIG
Observed
Jul-16 @ 18:50 UTC
Wind
  • 320° at 13 KTS
Visibility
10,000+ meters
Flight Rules
VFR
Cloud Levels
  • Few at 2,500' AGL
Temperature
C / 43°F
Dewpoint
C / 37°F
Humidity
81%
Altimeter
29.5" Hg
Pressure
998.92 hPa
Previous

4 hours ago

EGYP 161650Z 32012KT 9999 FEW015 06/03 Q0999 BLU NOSIG
Observed
Jul-16 @ 16:50 UTC
Wind
  • 320° at 12 KTS
Visibility
10,000+ meters
Flight Rules
VFR
Cloud Levels
  • Few at 1,500' AGL
Temperature
C / 43°F
Dewpoint
C / 37°F
Humidity
81%
Altimeter
29.5" Hg
Pressure
998.92 hPa